createdAt,value
2023-01-09T00:00:00.162Z,1.80
2023-01-09T00:02:14.182Z,2.40
2023-01-09T00:04:27.003Z,1.90
2023-01-09T00:06:41.213Z,3.00
2023-01-09T00:08:54.440Z,1.40
2023-01-09T00:11:08.659Z,0.70
2023-01-09T00:13:22.369Z,2.80
2023-01-09T00:15:35.699Z,1.20
2023-01-09T00:17:50.900Z,5.30
2023-01-09T00:20:05.328Z,3.00
2023-01-09T00:22:18.044Z,3.10
2023-01-09T00:24:31.337Z,3.80
2023-01-09T00:26:44.263Z,5.70
2023-01-09T00:28:58.887Z,2.00
2023-01-09T00:31:13.891Z,6.00
2023-01-09T00:33:27.713Z,3.50
2023-01-09T00:35:41.026Z,3.50
2023-01-09T00:37:54.132Z,4.40
2023-01-09T00:40:08.229Z,6.00
2023-01-09T00:42:30.158Z,5.60
2023-01-09T00:44:51.506Z,5.10
2023-01-09T00:47:12.076Z,10.20
2023-01-09T00:49:25.897Z,6.60
2023-01-09T00:51:40.177Z,6.40
2023-01-09T00:53:54.020Z,4.50
2023-01-09T00:56:10.438Z,4.90
2023-01-09T00:58:23.887Z,3.90
2023-01-09T01:00:36.907Z,5.40
2023-01-09T01:02:50.334Z,4.30
2023-01-09T01:05:20.759Z,3.20
2023-01-09T01:07:44.796Z,3.90
2023-01-09T01:09:57.866Z,4.50
2023-01-09T01:12:11.833Z,2.50
2023-01-09T01:14:25.869Z,3.10
2023-01-09T01:16:40.436Z,3.80
2023-01-09T01:18:54.434Z,2.50
2023-01-09T01:21:11.959Z,5.10
2023-01-09T01:23:26.062Z,6.60
2023-01-09T01:25:41.150Z,4.40
2023-01-09T01:27:54.667Z,4.70
2023-01-09T01:30:09.880Z,4.60
2023-01-09T01:32:22.973Z,5.20
2023-01-09T01:34:36.709Z,4.30
2023-01-09T01:36:50.390Z,4.30
2023-01-09T01:39:04.128Z,4.10
2023-01-09T01:41:31.281Z,6.10
2023-01-09T01:43:58.309Z,3.30
2023-01-09T01:46:12.132Z,3.90
2023-01-09T01:48:30.785Z,3.60
2023-01-09T01:50:48.164Z,3.40
2023-01-09T01:53:07.215Z,6.70
2023-01-09T01:55:22.573Z,5.70
2023-01-09T01:57:37.401Z,5.20
2023-01-09T01:59:56.909Z,4.50
2023-01-09T02:02:11.350Z,5.10
2023-01-09T02:04:25.066Z,5.30
2023-01-09T02:06:40.793Z,3.50
2023-01-09T02:08:54.353Z,3.40
2023-01-09T02:11:10.040Z,4.30
2023-01-09T02:13:25.663Z,4.70
2023-01-09T02:15:53.520Z,5.00
2023-01-09T02:18:30.817Z,5.50
2023-01-09T02:20:56.316Z,8.00
2023-01-09T02:23:33.783Z,4.80
2023-01-09T02:26:11.704Z,5.70
2023-01-09T02:28:54.234Z,3.50
2023-01-09T02:31:11.700Z,3.70
2023-01-09T02:33:53.061Z,4.80
2023-01-09T02:36:25.052Z,4.00
2023-01-09T02:38:44.685Z,7.80
2023-01-09T02:41:03.789Z,6.40
2023-01-09T02:43:19.578Z,3.50
2023-01-09T02:45:34.036Z,4.20
2023-01-09T02:47:50.838Z,4.80
2023-01-09T02:50:07.369Z,5.20
2023-01-09T02:52:38.801Z,6.30
2023-01-09T02:55:02.448Z,5.90
2023-01-09T02:57:33.290Z,5.70
2023-01-09T02:59:59.918Z,3.60
2023-01-09T03:02:35.590Z,5.40
2023-01-09T03:05:00.355Z,6.60
2023-01-09T03:07:17.848Z,7.60
2023-01-09T03:09:36.363Z,5.60
2023-01-09T03:11:55.908Z,6.30
2023-01-09T03:14:13.809Z,6.70
2023-01-09T03:16:28.139Z,4.20
2023-01-09T03:18:42.518Z,4.00
2023-01-09T03:20:57.410Z,5.30
2023-01-09T03:23:12.001Z,3.30
2023-01-09T03:25:26.355Z,5.00
2023-01-09T03:27:40.279Z,3.30
2023-01-09T03:29:54.388Z,3.90
2023-01-09T03:32:08.924Z,2.30
2023-01-09T03:34:21.906Z,4.40
2023-01-09T03:36:35.927Z,5.50
2023-01-09T03:38:49.971Z,2.40
2023-01-09T03:41:04.394Z,4.00
2023-01-09T03:43:18.084Z,3.50
2023-01-09T03:45:32.432Z,5.30
2023-01-09T03:47:45.562Z,2.90
2023-01-09T03:49:59.216Z,4.40
2023-01-09T03:52:14.400Z,3.90
2023-01-09T03:54:28.519Z,4.10
2023-01-09T03:56:42.295Z,4.20
2023-01-09T03:58:56.734Z,5.50
2023-01-09T04:01:13.699Z,6.40
2023-01-09T04:03:28.034Z,6.90
2023-01-09T04:05:41.310Z,6.10
2023-01-09T04:07:54.514Z,4.10
2023-01-09T04:10:08.817Z,4.10
2023-01-09T04:12:22.883Z,4.40
2023-01-09T04:14:36.824Z,3.10
2023-01-09T04:16:50.933Z,2.90
2023-01-09T04:19:04.390Z,4.60
2023-01-09T04:21:16.814Z,3.30
2023-01-09T04:23:30.631Z,6.10
2023-01-09T04:25:44.076Z,2.90
2023-01-09T04:27:57.525Z,3.80
2023-01-09T04:30:11.887Z,2.70
2023-01-09T04:32:24.994Z,3.20
2023-01-09T04:34:38.815Z,4.10
2023-01-09T04:36:52.747Z,6.80
2023-01-09T04:39:05.671Z,4.30
2023-01-09T04:41:39.716Z,2.40
2023-01-09T04:43:55.198Z,4.20
2023-01-09T04:46:08.079Z,3.60
2023-01-09T04:48:21.920Z,3.10
2023-01-09T04:50:35.776Z,3.50
2023-01-09T04:52:49.588Z,2.70
2023-01-09T04:55:03.331Z,3.40
2023-01-09T04:57:16.612Z,4.50
2023-01-09T04:59:29.164Z,5.30
2023-01-09T05:01:42.495Z,5.10
2023-01-09T05:03:57.627Z,4.40
2023-01-09T05:06:12.167Z,3.30
2023-01-09T05:08:25.853Z,2.70
2023-01-09T05:10:39.513Z,3.10
2023-01-09T05:12:53.588Z,3.60
2023-01-09T05:15:07.274Z,2.50
2023-01-09T05:17:20.973Z,2.20
2023-01-09T05:19:35.580Z,2.00
2023-01-09T05:21:48.550Z,4.00
2023-01-09T05:24:02.490Z,3.30
2023-01-09T05:26:15.406Z,2.30
2023-01-09T05:28:30.802Z,2.50
2023-01-09T05:30:44.535Z,5.20
2023-01-09T05:32:57.621Z,5.30
2023-01-09T05:35:11.664Z,1.80
2023-01-09T05:37:25.662Z,3.30
2023-01-09T05:39:39.566Z,4.80
2023-01-09T05:41:53.236Z,4.30
2023-01-09T05:44:07.606Z,2.30
2023-01-09T05:46:20.913Z,2.80
2023-01-09T05:48:34.461Z,1.50
2023-01-09T05:50:48.478Z,6.60
2023-01-09T05:53:02.392Z,3.20
2023-01-09T05:55:17.853Z,2.20
2023-01-09T05:57:31.700Z,1.80
2023-01-09T05:59:45.495Z,3.50
2023-01-09T06:01:58.478Z,1.90
2023-01-09T06:04:12.196Z,3.70
2023-01-09T06:06:25.697Z,4.70
2023-01-09T06:08:39.247Z,5.00
2023-01-09T06:10:53.062Z,4.90
2023-01-09T06:13:06.015Z,2.80
2023-01-09T06:15:21.513Z,4.80
2023-01-09T06:17:35.318Z,2.30
2023-01-09T06:19:49.223Z,2.90
2023-01-09T06:22:03.333Z,3.80
2023-01-09T06:24:17.515Z,3.40
2023-01-09T06:26:31.640Z,3.30
2023-01-09T06:28:45.608Z,1.20
2023-01-09T06:31:00.385Z,2.10
2023-01-09T06:33:13.424Z,1.90
2023-01-09T06:35:26.981Z,3.30
2023-01-09T06:37:40.868Z,2.20
2023-01-09T06:39:55.217Z,3.20
2023-01-09T06:42:09.608Z,3.40
2023-01-09T06:44:23.058Z,2.10
2023-01-09T06:46:36.961Z,2.10
2023-01-09T06:48:50.184Z,2.20
2023-01-09T06:51:04.236Z,4.00
2023-01-09T06:53:18.301Z,1.20
2023-01-09T06:55:33.007Z,4.10
2023-01-09T06:57:46.166Z,2.50
2023-01-09T07:00:00.075Z,2.20
2023-01-09T07:02:23.612Z,2.80
2023-01-09T07:04:36.954Z,2.30
2023-01-09T07:06:52.975Z,1.20
2023-01-09T07:09:07.027Z,2.10
2023-01-09T07:11:21.127Z,1.80
2023-01-09T07:13:35.059Z,1.50
2023-01-09T07:15:51.140Z,1.80
2023-01-09T07:18:04.696Z,2.40
2023-01-09T07:20:19.171Z,1.50
2023-01-09T07:22:33.154Z,1.80
2023-01-09T07:24:47.713Z,2.30
2023-01-09T07:27:01.175Z,2.70
2023-01-09T07:29:15.564Z,2.10
2023-01-09T07:31:29.212Z,1.90
2023-01-09T07:33:43.155Z,2.50
2023-01-09T07:35:56.996Z,1.40
2023-01-09T07:38:11.718Z,1.70
2023-01-09T07:40:25.654Z,1.40
2023-01-09T07:42:39.277Z,1.10
2023-01-09T07:44:54.133Z,2.10
2023-01-09T07:47:07.336Z,1.10
2023-01-09T07:49:22.417Z,1.40
2023-01-09T07:51:35.812Z,1.70
2023-01-09T07:53:49.503Z,1.20
2023-01-09T07:56:02.454Z,3.60
2023-01-09T07:58:16.890Z,2.80
2023-01-09T08:00:32.369Z,3.00
2023-01-09T08:02:45.931Z,1.30
2023-01-09T08:05:01.992Z,2.30
2023-01-09T08:07:15.407Z,1.10
2023-01-09T08:09:28.288Z,1.00
2023-01-09T08:11:42.546Z,4.70
2023-01-09T08:13:55.818Z,1.10
2023-01-09T08:16:09.807Z,1.70
2023-01-09T08:18:23.730Z,1.50
2023-01-09T08:20:36.953Z,2.50
2023-01-09T08:22:54.515Z,0.90
2023-01-09T08:25:07.904Z,0.90
2023-01-09T08:27:21.147Z,1.70
2023-01-09T08:29:34.315Z,1.00
2023-01-09T08:31:46.943Z,2.30
2023-01-09T08:34:00.991Z,1.70
2023-01-09T08:36:15.089Z,1.50
2023-01-09T08:38:27.978Z,1.80
2023-01-09T08:40:41.575Z,2.70
2023-01-09T08:43:11.591Z,1.00
2023-01-09T08:45:41.584Z,1.00
2023-01-09T08:47:55.793Z,1.70
2023-01-09T08:50:09.844Z,1.10
2023-01-09T08:52:22.670Z,1.60
2023-01-09T08:54:37.889Z,2.40
2023-01-09T08:56:51.711Z,2.10
2023-01-09T08:59:04.943Z,1.60
2023-01-09T09:01:18.857Z,1.80
2023-01-09T09:03:34.024Z,0.90
2023-01-09T09:05:47.486Z,2.10
2023-01-09T09:08:01.251Z,1.60
2023-01-09T09:10:15.283Z,1.20
2023-01-09T09:12:29.315Z,1.30
2023-01-09T09:15:00.311Z,1.30
2023-01-09T09:17:14.280Z,1.80
2023-01-09T09:19:27.689Z,2.00
2023-01-09T09:21:40.891Z,3.80
2023-01-09T09:23:54.940Z,4.60
2023-01-09T09:26:08.633Z,0.80
2023-01-09T09:28:22.403Z,2.60
2023-01-09T09:30:35.825Z,0.80
2023-01-09T09:32:49.635Z,0.80
2023-01-09T09:35:03.312Z,1.00
2023-01-09T09:37:16.168Z,1.00
2023-01-09T09:39:30.358Z,1.10
2023-01-09T09:42:25.607Z,1.50
2023-01-09T09:44:54.990Z,1.00
2023-01-09T09:47:16.176Z,0.80
2023-01-09T09:49:38.872Z,0.80
2023-01-09T09:52:04.846Z,3.00
2023-01-09T09:54:22.720Z,2.70
2023-01-09T09:56:39.886Z,0.70
2023-01-09T09:58:58.623Z,1.40
2023-01-09T10:01:12.677Z,1.00
2023-01-09T10:03:34.854Z,0.80
2023-01-09T10:08:11.555Z,1.90
2023-01-09T10:10:36.228Z,1.00
2023-01-09T10:12:55.440Z,0.70
2023-01-09T10:15:18.867Z,2.10
2023-01-09T10:17:59.846Z,1.00
2023-01-09T10:20:38.801Z,0.90
2023-01-09T10:23:02.526Z,2.30
2023-01-09T10:25:25.157Z,2.10
2023-01-09T10:27:57.157Z,2.60
2023-01-09T10:30:30.876Z,3.00
2023-01-09T10:33:02.472Z,0.80
2023-01-09T10:35:55.143Z,1.50
2023-01-09T10:38:11.964Z,2.00
2023-01-09T10:40:28.362Z,1.90
2023-01-09T10:42:48.648Z,2.20
2023-01-09T10:45:06.946Z,1.60
2023-01-09T10:47:24.195Z,1.10
2023-01-09T10:49:36.712Z,2.20
2023-01-09T10:51:53.425Z,2.30
2023-01-09T10:54:14.454Z,1.70
2023-01-09T10:56:30.029Z,0.70
2023-01-09T10:58:42.980Z,1.40
2023-01-09T11:00:57.966Z,1.40
2023-01-09T11:03:13.951Z,0.80
2023-01-09T11:05:31.119Z,0.90
2023-01-09T11:07:49.021Z,1.30
2023-01-09T11:10:09.478Z,0.70
2023-01-09T11:12:32.992Z,1.10
2023-01-09T11:14:46.937Z,0.70
2023-01-09T11:17:01.427Z,2.20
2023-01-09T11:19:19.986Z,1.90
2023-01-09T11:21:41.678Z,2.20
2023-01-09T11:23:55.468Z,0.70
2023-01-09T11:26:10.983Z,0.80
2023-01-09T11:28:24.385Z,0.90
2023-01-09T11:30:40.264Z,0.70
2023-01-09T11:32:55.230Z,0.80
2023-01-09T11:35:18.643Z,0.70
2023-01-09T11:37:33.791Z,0.90
2023-01-09T11:39:51.679Z,1.10
2023-01-09T11:42:07.467Z,1.10
2023-01-09T11:44:22.573Z,1.20
2023-01-09T11:46:42.617Z,0.90
2023-01-09T11:49:02.971Z,0.80
2023-01-09T11:51:27.085Z,1.50
2023-01-09T11:54:04.801Z,1.20
2023-01-09T11:56:20.386Z,1.60
2023-01-09T11:58:37.286Z,0.70
2023-01-09T12:00:57.575Z,0.90
2023-01-09T12:03:23.348Z,2.30
2023-01-09T12:05:48.309Z,1.60
2023-01-09T12:08:10.474Z,0.80
2023-01-09T12:12:49.874Z,1.20
2023-01-09T12:15:19.845Z,1.40
2023-01-09T12:17:51.995Z,2.40
2023-01-09T12:20:30.993Z,1.70
2023-01-09T12:22:52.540Z,1.50
2023-01-09T12:25:31.418Z,1.10
2023-01-09T12:28:09.836Z,1.70
2023-01-09T12:30:52.156Z,0.80
2023-01-09T12:33:26.385Z,4.10
2023-01-09T12:35:44.276Z,0.60
2023-01-09T12:38:14.638Z,0.90
2023-01-09T12:40:41.590Z,0.90
2023-01-09T12:43:03.320Z,0.80
2023-01-09T12:45:33.157Z,0.90
2023-01-09T12:47:54.561Z,1.80
2023-01-09T12:50:24.207Z,1.00
2023-01-09T12:52:42.796Z,0.80
2023-01-09T12:55:04.795Z,1.30
2023-01-09T12:59:40.384Z,1.90
2023-01-09T13:01:55.899Z,1.60
2023-01-09T13:04:18.317Z,1.80
2023-01-09T13:06:33.526Z,0.80
2023-01-09T13:08:50.850Z,1.10
2023-01-09T13:11:19.889Z,0.70
2023-01-09T13:13:47.069Z,1.30
2023-01-09T13:16:05.712Z,0.80
2023-01-09T13:18:24.663Z,2.30
2023-01-09T13:20:47.090Z,1.30
2023-01-09T13:23:01.487Z,0.80
2023-01-09T13:25:45.045Z,0.70
2023-01-09T13:28:04.167Z,0.80
2023-01-09T13:30:35.614Z,0.70
2023-01-09T13:32:58.307Z,0.70
2023-01-09T13:35:18.610Z,0.90
2023-01-09T13:37:34.109Z,0.80
2023-01-09T13:39:57.723Z,1.10
2023-01-09T13:42:46.068Z,0.90
2023-01-09T13:45:12.733Z,1.30
2023-01-09T13:47:28.930Z,1.90
2023-01-09T13:50:25.759Z,1.30
2023-01-09T13:52:42.200Z,0.70
2023-01-09T13:55:36.724Z,3.30
2023-01-09T13:58:16.174Z,0.70
2023-01-09T14:00:59.266Z,2.50
2023-01-09T14:03:26.968Z,0.70
2023-01-09T14:06:30.003Z,2.80
2023-01-09T14:08:44.778Z,1.80
2023-01-09T14:11:01.569Z,4.10
2023-01-09T14:13:20.715Z,1.20
2023-01-09T14:15:40.564Z,0.90
2023-01-09T14:18:01.915Z,1.30
2023-01-09T14:20:31.622Z,3.00
2023-01-09T14:22:55.881Z,2.00
2023-01-09T14:25:17.445Z,1.00
2023-01-09T14:28:10.604Z,1.60
2023-01-09T14:30:38.762Z,2.40
2023-01-09T14:33:01.365Z,1.50
2023-01-09T14:35:26.324Z,1.50
2023-01-09T14:37:43.024Z,5.40
2023-01-09T14:39:59.752Z,1.60
2023-01-09T14:42:23.789Z,0.70
2023-01-09T14:44:48.674Z,1.70
2023-01-09T14:47:03.367Z,1.80
2023-01-09T14:49:26.375Z,7.90
2023-01-09T14:51:47.421Z,2.50
2023-01-09T14:54:03.211Z,1.50
2023-01-09T14:56:35.894Z,1.50
2023-01-09T14:58:49.823Z,5.20
2023-01-09T15:01:08.778Z,0.70
2023-01-09T15:03:24.659Z,1.20
2023-01-09T15:05:39.416Z,0.70
2023-01-09T15:07:57.620Z,1.00
2023-01-09T15:10:19.197Z,3.30
2023-01-09T15:12:32.986Z,3.00
2023-01-09T15:14:48.221Z,1.00
2023-01-09T15:17:02.130Z,0.90
2023-01-09T15:19:17.775Z,0.60
2023-01-09T15:21:33.651Z,0.90
2023-01-09T15:23:47.410Z,1.60
2023-01-09T15:26:15.039Z,1.30
2023-01-09T15:28:33.600Z,0.90
2023-01-09T15:30:47.621Z,2.10
2023-01-09T15:33:00.978Z,1.20
2023-01-09T15:35:20.945Z,2.10
2023-01-09T15:37:38.939Z,3.00
2023-01-09T15:39:53.154Z,1.90
2023-01-09T15:42:24.559Z,2.20
2023-01-09T15:44:39.018Z,3.00
2023-01-09T15:46:53.544Z,1.50
2023-01-09T15:49:07.857Z,1.20
2023-01-09T15:51:22.267Z,0.70
2023-01-09T15:53:37.460Z,0.60
2023-01-09T15:56:06.012Z,1.10
2023-01-09T15:58:33.422Z,0.80
2023-01-09T16:00:49.330Z,1.90
2023-01-09T16:03:15.819Z,1.80
2023-01-09T16:05:30.521Z,2.10
2023-01-09T16:07:52.485Z,0.80
2023-01-09T16:10:06.227Z,1.40
2023-01-09T16:12:27.032Z,0.70
2023-01-09T16:14:46.620Z,0.80
2023-01-09T16:17:05.729Z,0.60
2023-01-09T16:19:47.446Z,1.70
2023-01-09T16:22:06.780Z,1.60
2023-01-09T16:24:41.383Z,0.90
2023-01-09T16:27:14.888Z,0.70
2023-01-09T16:29:48.548Z,1.20
2023-01-09T16:32:08.853Z,3.40
2023-01-09T16:34:22.726Z,0.70
2023-01-09T16:36:37.028Z,0.70
2023-01-09T16:38:51.031Z,0.70
2023-01-09T16:41:28.226Z,0.80
2023-01-09T16:43:42.361Z,0.70
2023-01-09T16:45:56.769Z,1.00
2023-01-09T16:48:17.631Z,0.70
2023-01-09T16:50:31.481Z,0.80
2023-01-09T16:52:47.380Z,0.80
2023-01-09T16:55:01.919Z,0.80
2023-01-09T16:57:21.872Z,0.70
2023-01-09T16:59:36.046Z,0.90
2023-01-09T17:01:49.424Z,2.70
2023-01-09T17:04:03.543Z,3.00
2023-01-09T17:06:21.295Z,0.70
2023-01-09T17:08:36.698Z,2.60
2023-01-09T17:10:50.206Z,2.20
2023-01-09T17:13:03.558Z,2.90
2023-01-09T17:15:17.409Z,1.20
2023-01-09T17:17:30.198Z,1.50
2023-01-09T17:19:44.214Z,1.50
2023-01-09T17:21:57.034Z,1.30
2023-01-09T17:24:28.431Z,2.60
2023-01-09T17:27:00.639Z,1.40
2023-01-09T17:29:14.115Z,1.90
2023-01-09T17:31:27.997Z,2.10
2023-01-09T17:33:42.602Z,1.30
2023-01-09T17:35:56.043Z,1.30
2023-01-09T17:38:10.271Z,1.00
2023-01-09T17:40:26.297Z,2.50
2023-01-09T17:42:39.673Z,3.60
2023-01-09T17:44:53.201Z,3.50
2023-01-09T17:47:07.449Z,2.20
2023-01-09T17:49:23.300Z,0.70
2023-01-09T17:51:36.900Z,0.70
2023-01-09T17:53:50.456Z,0.60
2023-01-09T17:56:04.362Z,0.60
2023-01-09T17:58:31.441Z,0.60
2023-01-09T18:00:45.839Z,0.60
2023-01-09T18:02:59.469Z,1.50
2023-01-09T18:05:14.497Z,0.70
2023-01-09T18:07:28.224Z,0.60
2023-01-09T18:09:41.749Z,0.60
2023-01-09T18:11:55.224Z,0.60
2023-01-09T18:14:08.312Z,0.80
2023-01-09T18:16:24.874Z,0.70
2023-01-09T18:18:39.368Z,1.40
2023-01-09T18:20:53.726Z,0.70
2023-01-09T18:23:07.448Z,0.60
2023-01-09T18:25:21.220Z,0.80
2023-01-09T18:27:34.422Z,0.70
2023-01-09T18:29:48.694Z,0.70
2023-01-09T18:32:02.841Z,0.90
2023-01-09T18:34:17.058Z,1.70
2023-01-09T18:36:32.606Z,1.20
2023-01-09T18:38:45.050Z,1.20
2023-01-09T18:41:04.188Z,1.60
2023-01-09T18:43:17.583Z,0.90
2023-01-09T18:45:30.328Z,1.10
2023-01-09T18:47:42.895Z,2.00
2023-01-09T18:49:55.503Z,0.70
2023-01-09T18:52:08.974Z,1.00
2023-01-09T18:54:22.974Z,0.60
2023-01-09T18:56:36.130Z,2.60
2023-01-09T18:58:49.318Z,0.80
2023-01-09T19:01:02.621Z,0.80
2023-01-09T19:03:19.558Z,1.50
2023-01-09T19:05:34.931Z,0.60
2023-01-09T19:07:48.416Z,0.60
2023-01-09T19:10:01.567Z,1.30
2023-01-09T19:12:15.666Z,3.70
2023-01-09T19:14:29.924Z,0.60
2023-01-09T19:16:44.489Z,1.10
2023-01-09T19:18:59.286Z,0.80
2023-01-09T19:21:18.367Z,2.20
2023-01-09T19:23:32.507Z,1.30
2023-01-09T19:25:49.460Z,1.50
2023-01-09T19:28:04.667Z,4.10
2023-01-09T19:30:19.064Z,1.00
2023-01-09T19:32:33.079Z,0.50
2023-01-09T19:34:47.403Z,0.80
2023-01-09T19:37:01.289Z,0.60
2023-01-09T19:39:15.231Z,1.50
2023-01-09T19:41:28.722Z,0.60
2023-01-09T19:43:41.945Z,1.50
2023-01-09T19:45:55.991Z,2.10
2023-01-09T19:48:10.856Z,1.70
2023-01-09T19:50:23.145Z,1.90
2023-01-09T19:52:36.967Z,0.80
2023-01-09T19:54:51.278Z,2.40
2023-01-09T19:57:04.224Z,2.90
2023-01-09T19:59:17.408Z,1.80
2023-01-09T20:01:32.109Z,1.20
2023-01-09T20:03:46.209Z,1.50
2023-01-09T20:06:05.236Z,1.50
2023-01-09T20:08:18.476Z,1.00
2023-01-09T20:10:32.462Z,0.90
2023-01-09T20:12:45.816Z,2.30
2023-01-09T20:14:58.822Z,1.70
2023-01-09T20:17:13.074Z,1.70
2023-01-09T20:19:28.477Z,2.30
2023-01-09T20:21:42.978Z,1.60
2023-01-09T20:23:57.097Z,2.60
2023-01-09T20:26:12.933Z,0.80
2023-01-09T20:28:27.399Z,2.50
2023-01-09T20:30:43.535Z,1.60
2023-01-09T20:32:57.114Z,1.90
2023-01-09T20:35:14.224Z,0.50
2023-01-09T20:37:27.906Z,3.10
2023-01-09T20:39:41.225Z,2.20
2023-01-09T20:41:56.208Z,1.10
2023-01-09T20:44:11.399Z,1.70
2023-01-09T20:46:25.622Z,0.90
2023-01-09T20:48:39.606Z,3.60
2023-01-09T20:50:52.813Z,3.20
2023-01-09T20:53:08.055Z,1.80
2023-01-09T20:55:21.478Z,2.60
2023-01-09T20:57:35.236Z,2.10
2023-01-09T20:59:48.736Z,1.90
2023-01-09T21:02:01.820Z,1.80
2023-01-09T21:04:15.961Z,4.40
2023-01-09T21:06:30.765Z,3.60
2023-01-09T21:08:45.299Z,2.00
2023-01-09T21:11:01.105Z,3.10
2023-01-09T21:13:14.837Z,2.90
2023-01-09T21:15:29.097Z,3.70
2023-01-09T21:17:43.275Z,6.10
2023-01-09T21:19:56.338Z,3.80
2023-01-09T21:22:09.801Z,3.00
2023-01-09T21:24:23.353Z,7.70
2023-01-09T21:26:36.513Z,4.20
2023-01-09T21:28:51.027Z,3.50
2023-01-09T21:31:05.632Z,5.40
2023-01-09T21:33:18.730Z,1.70
2023-01-09T21:35:31.943Z,2.00
2023-01-09T21:37:45.891Z,2.30
2023-01-09T21:40:00.161Z,4.90
2023-01-09T21:42:31.607Z,3.00
2023-01-09T21:45:02.048Z,3.90
2023-01-09T21:47:15.632Z,1.90
2023-01-09T21:49:32.190Z,2.70
2023-01-09T21:51:46.533Z,1.70
2023-01-09T21:53:59.642Z,5.70
2023-01-09T21:56:13.472Z,3.00
2023-01-09T21:58:26.318Z,2.50
2023-01-09T22:00:40.439Z,1.70
2023-01-09T22:02:54.967Z,4.00
2023-01-09T22:05:09.650Z,2.00
2023-01-09T22:07:24.537Z,2.80
2023-01-09T22:09:38.628Z,1.30
2023-01-09T22:11:52.368Z,2.60
2023-01-09T22:14:06.171Z,1.40
2023-01-09T22:16:19.336Z,3.40
2023-01-09T22:18:33.140Z,2.20
2023-01-09T22:20:47.714Z,1.60
2023-01-09T22:23:01.130Z,2.10
2023-01-09T22:25:15.014Z,4.00
2023-01-09T22:27:28.981Z,2.30
2023-01-09T22:29:42.079Z,4.10
2023-01-09T22:31:54.767Z,2.30
2023-01-09T22:34:08.881Z,3.20
2023-01-09T22:36:22.951Z,2.40
2023-01-09T22:38:37.239Z,5.40
2023-01-09T22:40:50.496Z,4.60
2023-01-09T22:43:05.435Z,2.80
2023-01-09T22:45:19.811Z,3.10
2023-01-09T22:47:34.964Z,5.70
2023-01-09T22:49:53.093Z,4.50
2023-01-09T22:52:08.596Z,3.80
2023-01-09T22:54:23.433Z,3.40
2023-01-09T22:56:37.335Z,1.90
2023-01-09T22:58:52.483Z,6.30
2023-01-09T23:01:05.888Z,4.10
2023-01-09T23:03:19.941Z,3.10
2023-01-09T23:05:33.229Z,2.50
2023-01-09T23:07:46.949Z,2.70
2023-01-09T23:10:03.069Z,3.80
2023-01-09T23:12:17.078Z,1.30
2023-01-09T23:14:31.290Z,4.30
2023-01-09T23:16:45.456Z,3.00
2023-01-09T23:18:59.817Z,3.00
2023-01-09T23:21:13.464Z,5.30
2023-01-09T23:23:28.139Z,3.60
2023-01-09T23:25:42.314Z,5.80
2023-01-09T23:27:55.615Z,7.80
2023-01-09T23:30:09.325Z,2.30
2023-01-09T23:32:23.283Z,3.70
2023-01-09T23:34:37.464Z,3.50
2023-01-09T23:36:52.060Z,3.40
2023-01-09T23:39:10.208Z,7.70
2023-01-09T23:41:45.772Z,3.10
2023-01-09T23:44:00.343Z,9.20
2023-01-09T23:46:15.167Z,11.30
2023-01-09T23:48:30.572Z,7.30
2023-01-09T23:50:45.976Z,8.50
2023-01-09T23:52:59.162Z,6.80
2023-01-09T23:55:13.421Z,14.90
2023-01-09T23:57:28.123Z,11.10
2023-01-09T23:59:41.208Z,7.50
